Time;durP1;ratioP1;P1;durP2;ratioP2;P2;SDS_P1;SDS_P2;PMS_P1;PMS_P2;Temp;Humidity;BMP_temperature;BMP_pressure;BME280_temperature;BME280_humidity;BME280_pressure;Samples;Min_cycle;Max_cycle;Signal;HPM_P1;HPM_P2
2022/10/26 00:02:14;;;;;;;10.23;5.55;;;;;;;9.69;100.00;101268.38;5068900;28;20060;-65
2022/10/26 00:04:39;;;;;;;7.50;5.22;;;;;;;9.70;100.00;101261.47;5068052;28;20362;-65
2022/10/26 00:07:04;;;;;;;7.72;4.95;;;;;;;9.72;100.00;101254.66;5064453;28;20028;-65
2022/10/26 00:09:30;;;;;;;8.65;5.07;;;;;;;9.73;100.00;101257.31;5060198;28;20100;-65
2022/10/26 00:11:55;;;;;;;10.40;5.18;;;;;;;9.74;100.00;101253.03;5067373;28;20029;-65
2022/10/26 00:14:20;;;;;;;9.45;4.90;;;;;;;9.75;100.00;101248.72;5069395;28;20025;-65
2022/10/26 00:16:46;;;;;;;7.32;5.25;;;;;;;9.76;100.00;101234.97;5069916;28;20043;-65
2022/10/26 00:19:11;;;;;;;7.15;5.28;;;;;;;9.78;100.00;101239.41;5083550;28;20055;-65
2022/10/26 00:21:36;;;;;;;7.65;5.20;;;;;;;9.80;100.00;101231.69;5060283;28;20388;-65
2022/10/26 00:24:02;;;;;;;9.32;5.13;;;;;;;9.81;100.00;101229.16;5063975;28;20017;-65
2022/10/26 00:26:27;;;;;;;9.88;6.03;;;;;;;9.83;100.00;101219.75;5067800;28;20035;-65
2022/10/26 00:28:54;;;;;;;6.45;5.43;;;;;;;9.87;100.00;101230.22;5057128;28;20032;-65
2022/10/26 00:31:19;;;;;;;7.97;5.13;;;;;;;9.90;100.00;101232.94;5053743;28;20043;-65
2022/10/26 00:33:45;;;;;;;6.95;4.95;;;;;;;9.92;100.00;101229.59;5068919;28;20028;-65
2022/10/26 00:36:12;;;;;;;11.50;5.47;;;;;;;9.94;100.00;101216.72;5068529;28;20105;-65
2022/10/26 00:38:44;;;;;;;5.90;4.82;;;;;;;9.97;100.00;101211.66;5060636;28;20039;-65
2022/10/26 00:41:13;;;;;;;9.43;4.80;;;;;;;9.99;100.00;101202.25;5049632;28;20031;-65
2022/10/26 00:43:39;;;;;;;9.38;5.70;;;;;;;10.03;100.00;101201.56;5057129;28;20068;-65
2022/10/26 00:46:08;;;;;;;8.73;5.30;;;;;;;10.07;100.00;101212.94;5068126;28;20055;-65
2022/10/26 00:48:41;;;;;;;6.28;5.18;;;;;;;10.11;100.00;101219.13;5068261;28;20020;-65
2022/10/26 00:51:12;;;;;;;10.60;6.50;;;;;;;10.13;100.00;101222.66;5068994;28;20044;-65
2022/10/26 00:53:38;;;;;;;9.27;5.57;;;;;;;10.16;100.00;101221.06;5068179;28;20024;-65
2022/10/26 00:56:03;;;;;;;6.35;5.22;;;;;;;10.18;100.00;101223.72;5055750;28;20080;-65
2022/10/26 00:58:30;;;;;;;8.20;5.88;;;;;;;10.19;100.00;101226.38;5060560;28;20424;-65
2022/10/26 01:00:55;;;;;;;10.20;5.97;;;;;;;10.23;100.00;101222.19;5058872;28;20052;-65
2022/10/26 01:03:24;;;;;;;8.45;6.00;;;;;;;10.23;100.00;101213.53;5068376;28;20087;-65
2022/10/26 01:05:52;;;;;;;9.45;6.80;;;;;;;10.24;100.00;101208.41;5059912;28;20060;-65
2022/10/26 01:08:18;;;;;;;9.85;7.00;;;;;;;10.27;100.00;101208.50;5061706;28;20500;-65
2022/10/26 01:10:44;;;;;;;9.30;7.28;;;;;;;10.28;100.00;101212.91;5055391;28;20035;-65
2022/10/26 01:13:11;;;;;;;7.75;6.78;;;;;;;10.31;100.00;101206.94;5062263;28;20028;-65
2022/10/26 01:15:46;;;;;;;11.45;6.90;;;;;;;10.33;100.00;101202.69;5068467;28;20024;-65
2022/10/26 01:18:44;;;;;;;10.00;7.05;;;;;;;10.36;100.00;101201.94;5062671;28;20032;-65
2022/10/26 01:21:17;;;;;;;13.10;7.28;;;;;;;10.36;100.00;101197.63;5087744;28;20039;-65
2022/10/26 01:23:53;;;;;;;8.25;6.90;;;;;;;10.37;100.00;101196.81;5084473;28;20170;-65
2022/10/26 01:26:49;;;;;;;7.82;6.25;;;;;;;10.38;100.00;101197.72;5086504;28;20031;-65
2022/10/26 01:29:54;;;;;;;10.25;7.00;;;;;;;10.39;100.00;101189.09;5086435;28;20054;-65
2022/10/26 01:32:30;;;;;;;8.63;6.78;;;;;;;10.40;100.00;101183.97;5072867;28;20040;-65
2022/10/26 01:35:07;;;;;;;7.43;6.05;;;;;;;10.38;100.00;101183.03;5078639;28;20020;-65
2022/10/26 01:37:38;;;;;;;10.32;7.10;;;;;;;10.39;100.00;101179.63;5081320;28;20256;-65
2022/10/26 01:40:14;;;;;;;9.63;6.00;;;;;;;10.39;100.00;101179.63;5068005;28;20036;-65
2022/10/26 01:42:46;;;;;;;9.43;6.10;;;;;;;10.39;100.00;101183.94;5067259;28;20078;-65
2022/10/26 01:45:13;;;;;;;8.73;6.30;;;;;;;10.40;100.00;101177.91;5067802;28;20021;-65
2022/10/26 01:47:39;;;;;;;10.93;6.40;;;;;;;10.39;100.00;101171.88;5068908;28;20038;-65
2022/10/26 01:50:07;;;;;;;9.57;6.55;;;;;;;10.40;100.00;101170.13;5080565;28;20411;-65
2022/10/26 01:52:32;;;;;;;7.03;6.18;;;;;;;10.39;100.00;101168.38;5067541;28;20050;-65
2022/10/26 01:55:06;;;;;;;8.65;6.40;;;;;;;10.39;100.00;101171.88;5086139;28;20095;-65
2022/10/26 01:57:35;;;;;;;6.55;5.82;;;;;;;10.40;100.00;101162.34;5075025;28;20012;-65
2022/10/26 02:00:05;;;;;;;8.57;6.57;;;;;;;10.41;100.00;101166.75;5067445;28;20502;-65
2022/10/26 02:02:42;;;;;;;8.77;5.85;;;;;;;10.40;100.00;101157.19;5067337;28;20031;-65
2022/10/26 02:05:38;;;;;;;8.05;5.22;;;;;;;10.40;100.00;101158.06;5066895;28;20100;-65
2022/10/26 02:08:30;;;;;;;7.13;5.63;;;;;;;10.41;100.00;101166.75;5066819;28;20101;-65
2022/10/26 02:11:05;;;;;;;5.70;5.20;;;;;;;10.41;100.00;101158.97;5067483;28;20027;-65
2022/10/26 02:13:46;;;;;;;10.23;5.00;;;;;;;10.39;100.00;101156.31;5067099;28;20032;-65
2022/10/26 02:16:27;;;;;;;9.55;4.88;;;;;;;10.39;100.00;101147.66;5067096;28;20028;-65
2022/10/26 02:19:02;;;;;;;9.68;5.07;;;;;;;10.39;100.00;101147.66;5066924;28;20033;-65
2022/10/26 02:21:51;;;;;;;9.40;5.38;;;;;;;10.37;100.00;101139.84;5066712;28;20025;-65
2022/10/26 02:24:16;;;;;;;7.85;4.88;;;;;;;10.37;100.00;101147.59;5066609;28;20109;-65
2022/10/26 02:26:46;;;;;;;8.00;4.93;;;;;;;10.37;100.00;101146.72;5060523;28;20057;-65
2022/10/26 02:29:17;;;;;;;8.07;4.95;;;;;;;10.36;100.00;101148.41;5052944;28;20024;-65
2022/10/26 02:31:45;;;;;;;9.18;4.93;;;;;;;10.36;100.00;101147.53;5067743;28;20404;-65
2022/10/26 02:34:13;;;;;;;9.80;5.03;;;;;;;10.35;100.00;101143.16;5066825;28;20048;-65
2022/10/26 02:36:43;;;;;;;6.70;4.32;;;;;;;10.35;100.00;101143.16;5067288;28;20031;-65
2022/10/26 02:39:11;;;;;;;9.45;4.70;;;;;;;10.35;100.00;101132.81;5066836;28;20028;-65
2022/10/26 02:41:39;;;;;;;6.97;4.97;;;;;;;10.33;100.00;101136.25;5066731;28;20032;-65
2022/10/26 02:44:22;;;;;;;9.25;4.53;;;;;;;10.35;100.00;101136.28;5066862;28;20056;-65
2022/10/26 02:46:49;;;;;;;5.72;4.05;;;;;;;10.36;100.00;101134.59;5067152;28;20028;-65
2022/10/26 02:49:15;;;;;;;9.80;4.22;;;;;;;10.36;100.00;101134.59;5067047;28;20021;-65
2022/10/26 02:51:48;;;;;;;8.20;4.38;;;;;;;10.33;100.00;101128.47;5066442;28;20031;-65
2022/10/26 02:54:32;;;;;;;8.90;4.45;;;;;;;10.33;100.00;101128.47;5066910;28;20028;-65
2022/10/26 02:57:06;;;;;;;6.13;4.38;;;;;;;10.32;100.00;101131.91;5070724;28;20028;-65
2022/10/26 02:59:35;;;;;;;6.60;4.20;;;;;;;10.30;100.00;101130.94;5070316;28;20108;-65
2022/10/26 03:02:01;;;;;;;7.15;4.30;;;;;;;10.31;100.00;101127.53;5060550;28;20062;-66
2022/10/26 03:04:32;;;;;;;9.93;4.60;;;;;;;10.30;100.00;101124.88;5066644;28;20036;-65
2022/10/26 03:06:57;;;;;;;5.35;4.13;;;;;;;10.27;100.00;101125.63;5071063;28;20042;-65
2022/10/26 03:09:23;;;;;;;8.68;4.65;;;;;;;10.27;100.00;101124.78;5056594;28;20107;-65
2022/10/26 03:11:48;;;;;;;6.32;4.70;;;;;;;10.24;100.00;101130.69;5063746;28;20041;-65
2022/10/26 03:14:14;;;;;;;8.00;4.97;;;;;;;10.23;100.00;101123.78;5064490;28;20595;-65
2022/10/26 03:16:39;;;;;;;10.25;4.57;;;;;;;10.24;100.00;101116.88;5050308;28;20037;-65
2022/10/26 03:19:04;;;;;;;5.97;4.10;;;;;;;10.23;100.00;101112.53;5064291;28;20039;-65
2022/10/26 03:21:29;;;;;;;7.10;4.57;;;;;;;10.22;100.00;101111.63;5064203;28;20098;-65
2022/10/26 03:23:55;;;;;;;7.13;4.05;;;;;;;10.21;100.00;101121.13;5062200;28;20044;-65
2022/10/26 03:26:20;;;;;;;8.15;4.35;;;;;;;10.21;100.00;101120.25;5066601;28;20448;-65
2022/10/26 03:28:45;;;;;;;10.02;4.88;;;;;;;10.21;100.00;101122.81;5083097;28;20450;-65
2022/10/26 03:31:11;;;;;;;5.65;3.80;;;;;;;10.18;100.00;101115.81;5081629;28;20251;-65
2022/10/26 03:33:36;;;;;;;6.10;3.92;;;;;;;10.20;100.00;101121.03;5084498;28;20055;-65
2022/10/26 03:36:01;;;;;;;7.47;4.05;;;;;;;10.20;100.00;101115.84;5063478;28;20028;-65
2022/10/26 03:38:27;;;;;;;10.95;4.40;;;;;;;10.21;100.00;101115.94;5062649;28;20021;-65
2022/10/26 03:40:52;;;;;;;8.20;4.40;;;;;;;10.23;100.00;101120.28;5070261;28;20016;-65
2022/10/26 03:43:17;;;;;;;6.30;4.28;;;;;;;10.24;100.00;101119.44;5069963;28;20642;-65
2022/10/26 03:45:43;;;;;;;8.50;3.80;;;;;;;10.24;100.00;101109.97;5070105;28;20028;-65
2022/10/26 03:48:08;;;;;;;7.00;3.38;;;;;;;10.26;100.00;101113.53;5070036;28;20032;-65
2022/10/26 03:50:34;;;;;;;7.53;3.70;;;;;;;10.25;100.00;101111.78;5069912;28;20025;-65
2022/10/26 03:52:59;;;;;;;9.20;3.45;;;;;;;10.26;100.00;101113.53;5069955;28;20025;-65
2022/10/26 03:55:24;;;;;;;8.57;3.67;;;;;;;10.27;100.00;101110.09;5058246;28;20473;-65
2022/10/26 03:57:49;;;;;;;4.68;3.75;;;;;;;10.27;100.00;101099.72;5049856;28;20013;-65
2022/10/26 04:00:16;;;;;;;6.85;4.03;;;;;;;10.28;100.00;101101.50;5059057;28;20028;-65
2022/10/26 04:02:45;;;;;;;8.75;3.38;;;;;;;10.28;100.00;101101.50;5069595;28;20028;-65
2022/10/26 04:05:10;;;;;;;7.35;3.60;;;;;;;10.30;100.00;101104.16;5070153;28;20051;-65
2022/10/26 04:07:36;;;;;;;7.78;3.83;;;;;;;10.29;100.00;101103.25;5068171;28;20024;-65
2022/10/26 04:10:01;;;;;;;5.40;3.65;;;;;;;10.30;100.00;101105.06;5069238;28;20039;-65
2022/10/26 04:12:26;;;;;;;5.68;3.63;;;;;;;10.29;100.00;101108.44;5058470;28;20067;-65
2022/10/26 04:14:52;;;;;;;6.72;3.47;;;;;;;10.31;100.00;101105.91;5069481;28;20449;-65
2022/10/26 04:17:17;;;;;;;6.35;3.50;;;;;;;10.30;100.00;101104.16;5069378;28;20017;-65
2022/10/26 04:19:42;;;;;;;6.32;3.40;;;;;;;10.32;100.00;101107.69;5060750;28;20461;-65
2022/10/26 04:22:07;;;;;;;6.45;3.42;;;;;;;10.32;100.00;101103.41;5056975;28;20135;-65
2022/10/26 04:24:33;;;;;;;6.95;3.08;;;;;;;10.34;100.00;101108.63;5065565;28;20384;-65
2022/10/26 04:26:58;;;;;;;8.43;3.35;;;;;;;10.36;100.00;101103.50;5070314;28;20035;-65
2022/10/26 04:29:23;;;;;;;4.18;3.10;;;;;;;10.37;100.00;101105.25;5089184;28;20060;-65
2022/10/26 04:31:49;;;;;;;7.60;3.45;;;;;;;10.37;100.00;101092.31;5075532;28;20039;-65
2022/10/26 04:34:14;;;;;;;6.30;3.35;;;;;;;10.39;100.00;101098.44;5053152;28;20028;-65
2022/10/26 04:36:39;;;;;;;5.75;3.20;;;;;;;10.39;100.00;101088.97;5068180;28;20444;-65
2022/10/26 04:39:05;;;;;;;8.55;3.97;;;;;;;10.42;100.00;101098.53;5065194;28;20132;-65
2022/10/26 04:41:30;;;;;;;5.18;3.13;;;;;;;10.42;100.00;101093.34;5058604;28;20376;-65
2022/10/26 04:43:56;;;;;;;7.00;3.30;;;;;;;10.44;100.00;101086.53;5053908;28;20076;-65
2022/10/26 04:46:21;;;;;;;12.35;3.33;;;;;;;10.47;100.00;101091.81;5068204;28;20032;-65
2022/10/26 04:48:47;;;;;;;6.32;3.08;;;;;;;10.49;100.00;101089.34;5052549;28;20465;-65
2022/10/26 04:51:13;;;;;;;7.47;3.67;;;;;;;10.51;100.00;101093.72;5049589;28;20028;-65
2022/10/26 04:53:38;;;;;;;5.07;3.05;;;;;;;10.52;100.00;101094.63;5048601;28;20107;-65
2022/10/26 04:56:03;;;;;;;10.27;3.30;;;;;;;10.53;100.00;101091.19;5048680;28;20037;-65
2022/10/26 04:58:29;;;;;;;8.85;3.72;;;;;;;10.55;100.00;101095.63;5051057;28;20469;-65
2022/10/26 05:00:55;;;;;;;7.60;3.70;;;;;;;10.59;100.00;101101.78;5047662;28;20021;-65
2022/10/26 05:03:20;;;;;;;5.70;3.25;;;;;;;10.60;100.00;101098.38;5046066;28;20036;-65
2022/10/26 05:05:48;;;;;;;7.88;3.17;;;;;;;10.62;100.00;101104.50;5047790;28;20040;-65
2022/10/26 05:08:14;;;;;;;5.70;3.42;;;;;;;10.63;100.00;101095.88;5048430;28;20021;-65
2022/10/26 05:10:39;;;;;;;9.32;4.05;;;;;;;10.66;100.00;101102.88;5049351;28;20033;-65
2022/10/26 05:13:05;;;;;;;5.05;3.28;;;;;;;10.68;100.00;101098.66;5048115;28;20020;-65
2022/10/26 05:15:30;;;;;;;4.80;3.15;;;;;;;10.71;100.00;101096.16;5050107;28;20457;-65
2022/10/26 05:17:58;;;;;;;6.63;3.40;;;;;;;10.73;100.00;101098.81;5050205;28;20020;-65
2022/10/26 05:20:30;;;;;;;9.43;3.72;;;;;;;10.74;100.00;101109.22;5047467;28;20028;-65
2022/10/26 05:22:57;;;;;;;5.55;3.30;;;;;;;10.75;100.00;101103.22;5047018;28;20652;-65
2022/10/26 05:25:23;;;;;;;6.82;3.42;;;;;;;10.77;100.00;101101.56;5051221;28;20120;-65
2022/10/26 05:27:48;;;;;;;6.75;3.47;;;;;;;10.78;100.00;101108.50;5052164;28;20497;-65
2022/10/26 05:30:14;;;;;;;5.18;3.13;;;;;;;10.79;100.00;101105.06;5049810;28;20082;-65
2022/10/26 05:32:39;;;;;;;4.88;3.15;;;;;;;10.80;100.00;101106.88;5051273;28;20472;-65
2022/10/26 05:35:04;;;;;;;8.05;3.55;;;;;;;10.83;100.00;101110.41;5049033;28;20113;-65
2022/10/26 05:37:30;;;;;;;8.43;3.80;;;;;;;10.83;100.00;101111.25;5049324;28;20021;-65
2022/10/26 05:39:55;;;;;;;7.75;3.55;;;;;;;10.84;100.00;101112.16;5054687;28;20025;-65
2022/10/26 05:42:20;;;;;;;10.15;3.35;;;;;;;10.85;100.00;101114.78;5057553;28;20027;-65
2022/10/26 05:44:46;;;;;;;8.27;3.58;;;;;;;10.86;100.00;101105.31;5053419;28;20504;-65
2022/10/26 05:47:11;;;;;;;7.20;3.28;;;;;;;10.87;100.00;101113.13;5052714;28;20079;-65
2022/10/26 05:49:37;;;;;;;6.82;3.50;;;;;;;10.87;100.00;101113.13;5047633;28;20473;-65
2022/10/26 05:52:02;;;;;;;7.30;3.58;;;;;;;10.88;100.00;101104.53;5050792;28;20089;-65
2022/10/26 05:54:28;;;;;;;6.43;3.55;;;;;;;10.89;100.00;101113.19;5051472;28;20328;-65
2022/10/26 05:56:53;;;;;;;6.82;3.50;;;;;;;10.90;100.00;101117.56;5052064;28;20051;-65
2022/10/26 05:59:19;;;;;;;7.35;3.10;;;;;;;10.91;100.00;101116.72;5051781;28;20017;-65
2022/10/26 06:02:22;;;;;;;7.07;2.78;;;;;;;10.91;100.00;101124.50;5047401;28;20055;-65
2022/10/26 06:04:47;;;;;;;6.28;3.30;;;;;;;10.92;100.00;101121.06;5061480;28;20032;-65
2022/10/26 06:07:16;;;;;;;6.78;3.60;;;;;;;10.94;100.00;101129.78;5053697;28;20112;-65
2022/10/26 06:09:42;;;;;;;6.53;3.70;;;;;;;10.95;100.00;101131.56;5052265;28;20546;-65
2022/10/26 06:12:09;;;;;;;7.05;3.45;;;;;;;10.95;100.00;101131.56;5051537;28;20064;-65
2022/10/26 06:14:34;;;;;;;7.05;3.10;;;;;;;10.97;100.00;101134.22;5051146;28;20515;-65
2022/10/26 06:17:27;;;;;;;8.13;3.60;;;;;;;10.97;100.00;101131.63;5051159;28;20352;-65
2022/10/26 06:20:17;;;;;;;7.43;3.30;;;;;;;10.99;100.00;101143.78;5048086;28;20048;-65
2022/10/26 06:23:38;;;;;;;4.18;3.50;;;;;;;10.99;100.00;101146.38;5049312;28;20085;-65
2022/10/26 06:26:38;;;;;;;4.50;3.40;;;;;;;11.01;100.00;101147.31;5027249;28;20127;-65
2022/10/26 06:29:18;;;;;;;6.38;2.75;;;;;;;11.01;100.00;101142.13;5056329;28;20025;-65
2022/10/26 06:31:44;;;;;;;5.38;3.28;;;;;;;11.01;100.00;101149.06;5054202;28;20071;-65
2022/10/26 06:34:14;;;;;;;6.35;3.17;;;;;;;10.98;100.00;101146.34;5052510;28;20029;-65
2022/10/26 06:36:40;;;;;;;9.10;3.20;;;;;;;10.96;100.00;101138.50;5053840;28;20024;-66
2022/10/26 06:39:10;;;;;;;7.97;3.47;;;;;;;10.94;100.00;101132.38;5054487;28;20071;-65
2022/10/26 06:41:36;;;;;;;8.13;2.92;;;;;;;10.91;100.00;101142.66;5055764;28;20488;-65
2022/10/26 06:44:03;;;;;;;7.97;3.70;;;;;;;10.88;100.00;101139.97;5055704;28;20053;-65
2022/10/26 06:46:34;;;;;;;9.98;3.20;;;;;;;10.87;100.00;101135.56;5052695;28;20032;-65
2022/10/26 06:49:08;;;;;;;4.38;3.13;;;;;;;10.86;100.00;101129.53;5054102;28;20060;-65
2022/10/26 06:51:41;;;;;;;9.25;3.35;;;;;;;10.87;100.00;101127.81;5058469;28;20067;-65
2022/10/26 06:54:24;;;;;;;12.02;3.55;;;;;;;10.86;100.00;101121.75;5069701;28;20035;-65
2022/10/26 06:56:51;;;;;;;8.18;3.28;;;;;;;10.87;100.00;101127.81;5053524;28;20028;-65
2022/10/26 06:59:36;;;;;;;7.22;3.58;;;;;;;10.87;100.00;101125.22;5052202;28;20549;-65
2022/10/26 07:02:02;;;;;;;6.75;3.70;;;;;;;10.88;100.00;101124.41;5051105;28;20086;-65
2022/10/26 07:04:27;;;;;;;7.05;3.53;;;;;;;10.90;100.00;101126.19;5057631;28;20025;-65
2022/10/26 07:06:54;;;;;;;8.48;4.25;;;;;;;10.93;100.00;101122.84;5056182;28;20424;-65
2022/10/26 07:09:19;;;;;;;6.15;3.97;;;;;;;10.95;100.00;101120.31;5054836;28;20031;-65
2022/10/26 07:11:45;;;;;;;5.10;3.67;;;;;;;10.97;100.00;101129.91;5054959;28;20092;-65
2022/10/26 07:14:10;;;;;;;6.97;3.97;;;;;;;10.99;100.00;101143.78;5067033;28;20025;-65
2022/10/26 07:16:36;;;;;;;6.00;4.03;;;;;;;11.02;100.00;101153.41;5059739;28;20025;-65
2022/10/26 07:19:01;;;;;;;6.50;3.80;;;;;;;11.04;100.00;101149.16;5057684;28;20476;-66
2022/10/26 07:21:27;;;;;;;7.40;4.13;;;;;;;11.07;100.00;101153.56;5070893;28;20012;-65
2022/10/26 07:23:54;;;;;;;7.93;3.88;;;;;;;11.09;100.00;101146.72;5059021;28;20458;-65
2022/10/26 07:26:20;;;;;;;4.95;3.45;;;;;;;11.11;100.00;101152.84;5064885;28;20595;-65
2022/10/26 07:28:50;;;;;;;4.32;3.42;;;;;;;11.13;100.00;101162.47;5050354;28;20028;-65
2022/10/26 07:31:16;;;;;;;6.13;3.83;;;;;;;11.16;100.00;101162.56;5054016;28;20024;-65
2022/10/26 07:33:41;;;;;;;6.13;3.80;;;;;;;11.20;100.00;101170.44;5050874;28;20060;-65
2022/10/26 07:36:09;;;;;;;6.40;4.05;;;;;;;11.22;100.00;101179.16;5053132;28;20033;-65
2022/10/26 07:38:35;;;;;;;8.18;4.03;;;;;;;11.25;100.00;101172.38;5056648;28;20048;-65
2022/10/26 07:41:01;;;;;;;9.05;3.80;;;;;;;11.27;100.00;101170.72;5056546;28;20064;-65
2022/10/26 07:43:26;;;;;;;4.47;3.22;;;;;;;11.31;100.00;101176.88;5050246;28;20045;-65
2022/10/26 07:45:51;;;;;;;5.20;3.92;;;;;;;11.35;100.00;101183.06;5055050;28;20165;-65
2022/10/26 07:48:17;;;;;;;7.72;4.05;;;;;;;11.38;100.00;101177.97;5056595;28;20040;-65
2022/10/26 07:50:42;;;;;;;6.57;3.58;;;;;;;11.40;100.00;101192.75;5056027;28;20107;-65
2022/10/26 07:53:07;;;;;;;6.47;4.57;;;;;;;11.45;100.00;101200.72;5054801;28;20102;-65
2022/10/26 07:55:32;;;;;;;9.25;4.25;;;;;;;11.52;100.00;101210.47;5056055;28;20039;-65
2022/10/26 07:57:58;;;;;;;9.05;4.28;;;;;;;11.59;100.00;101202.88;5066898;28;20080;-65
2022/10/26 08:00:24;;;;;;;6.43;3.85;;;;;;;11.69;100.00;101210.16;5055562;28;20043;-65
2022/10/26 08:02:49;;;;;;;7.00;4.30;;;;;;;11.77;100.00;101202.59;5069046;28;20163;-66
2022/10/26 08:05:15;;;;;;;8.38;3.95;;;;;;;11.92;100.00;101202.25;5069609;28;20542;-65
2022/10/26 08:07:42;;;;;;;5.13;3.55;;;;;;;12.24;100.00;101198.91;5055823;28;20025;-64
2022/10/26 08:10:08;;;;;;;7.07;3.63;;;;;;;12.72;100.00;101217.66;5068374;28;20036;-64
2022/10/26 08:12:33;;;;;;;5.72;3.03;;;;;;;12.95;100.00;101218.31;5058059;28;20072;-64
2022/10/26 08:14:59;;;;;;;5.55;2.80;;;;;;;13.06;100.00;101217.75;5062328;28;20036;-64
2022/10/26 08:17:24;;;;;;;6.55;3.00;;;;;;;13.12;100.00;101225.72;5060556;28;20031;-64
2022/10/26 08:19:49;;;;;;;5.00;2.78;;;;;;;13.15;100.00;101217.97;5056442;28;21179;-64
2022/10/26 08:22:15;;;;;;;5.60;2.78;;;;;;;13.19;100.00;101218.94;5074964;28;20442;-64
2022/10/26 08:24:41;;;;;;;4.95;2.88;;;;;;;13.25;100.00;101218.22;5079627;28;20025;-64
2022/10/26 08:27:06;;;;;;;4.30;2.42;;;;;;;13.32;100.00;101220.16;5067877;28;20142;-64
2022/10/26 08:29:32;;;;;;;4.28;2.10;;;;;;;13.37;100.00;101218.56;5068677;28;20020;-64
2022/10/26 08:31:57;;;;;;;5.88;2.40;;;;;;;13.49;100.00;101227.56;5071544;28;20315;-64
2022/10/26 08:34:22;;;;;;;6.60;2.15;;;;;;;13.62;100.00;101219.22;5063535;28;20041;-65
2022/10/26 08:36:49;;;;;;;5.25;2.15;;;;;;;13.74;100.00;101223.88;5066715;28;20028;-64
2022/10/26 08:39:14;;;;;;;3.90;2.10;;;;;;;13.89;100.00;101220.75;5068646;28;20112;-65
2022/10/26 08:41:43;;;;;;;3.63;2.20;;;;;;;14.14;100.00;101229.16;5055410;28;20457;-65
2022/10/26 08:44:29;;;;;;;3.60;2.03;;;;;;;14.51;100.00;101236.06;5063668;28;20051;-64
2022/10/26 08:47:05;;;;;;;3.92;1.77;;;;;;;14.85;100.00;101244.66;5062445;28;20595;-65
2022/10/26 08:49:53;;;;;;;3.65;1.55;;;;;;;15.11;100.00;101233.84;5063256;28;20028;-64
2022/10/26 08:52:25;;;;;;;3.70;1.90;;;;;;;15.25;100.00;101235.84;5054068;28;20861;-65
2022/10/26 08:54:56;;;;;;;5.15;1.85;;;;;;;15.32;100.00;101240.34;5048876;28;20502;-64
2022/10/26 08:57:29;;;;;;;4.55;2.08;;;;;;;15.33;100.00;101235.97;5052314;28;20021;-65
2022/10/26 09:00:17;;;;;;;5.18;1.98;;;;;;;15.29;100.00;101219.38;5053210;28;20430;-64
2022/10/26 09:02:43;;;;;;;4.72;1.83;;;;;;;15.26;100.00;101221.94;5050577;28;20476;-64
2022/10/26 09:05:15;;;;;;;4.03;1.85;;;;;;;15.23;100.00;101214.06;5048093;28;20039;-64
2022/10/26 09:07:56;;;;;;;4.78;1.83;;;;;;;15.22;100.00;101212.28;5046841;28;20031;-65
2022/10/26 09:10:33;;;;;;;3.33;1.90;;;;;;;15.20;100.00;101214.88;5055268;28;20047;-64
2022/10/26 09:13:16;;;;;;;4.95;2.00;;;;;;;15.23;100.00;101229.72;5049646;28;20495;-65
2022/10/26 09:15:44;;;;;;;4.20;2.10;;;;;;;15.27;100.00;101234.16;5050790;28;20028;-65
2022/10/26 09:18:36;;;;;;;4.82;1.80;;;;;;;15.30;100.00;101243.75;5047238;28;20030;-65
2022/10/26 09:21:26;;;;;;;3.03;2.00;;;;;;;15.35;100.00;101249.94;5042081;28;20350;-65
2022/10/26 09:24:05;;;;;;;4.57;1.70;;;;;;;15.39;100.00;101256.09;5048687;28;20400;-65
2022/10/26 09:26:32;;;;;;;4.78;2.08;;;;;;;15.41;100.00;101251.78;5060772;28;20067;-65
2022/10/26 09:29:02;;;;;;;5.70;2.35;;;;;;;15.46;100.00;101268.41;5060826;28;20056;-65
2022/10/26 09:31:31;;;;;;;3.60;1.80;;;;;;;15.49;100.00;101269.34;5049511;28;20021;-65
2022/10/26 09:34:01;;;;;;;4.03;2.40;;;;;;;15.56;100.00;101283.41;5051002;28;20101;-65
2022/10/26 09:36:27;;;;;;;4.75;1.88;;;;;;;15.59;100.00;101278.25;5049038;28;20016;-65
2022/10/26 09:39:02;;;;;;;3.10;1.90;;;;;;;15.66;100.00;101284.47;5047745;28;20078;-64
2022/10/26 09:41:37;;;;;;;3.95;1.88;;;;;;;15.73;100.00;101296.78;5048402;28;20083;-65
2022/10/26 09:44:26;;;;;;;3.50;1.63;;;;;;;15.83;100.00;101303.03;5053592;28;20109;-65
2022/10/26 09:47:01;;;;;;;4.57;2.13;;;;;;;15.89;100.00;101304.00;5061761;28;20021;-65
2022/10/26 09:49:36;;;;;;;5.50;2.38;;;;;;;15.93;100.00;101303.19;5053134;28;20028;-65
2022/10/26 09:52:01;;;;;;;4.20;1.90;;;;;;;15.95;100.00;101298.88;5057413;28;20056;-65
2022/10/26 09:54:27;;;;;;;4.60;2.13;;;;;;;15.96;100.00;101303.25;5057639;28;20029;-65
2022/10/26 09:56:56;;;;;;;5.53;2.13;;;;;;;15.95;100.00;101299.78;5051944;28;20017;-65
2022/10/26 09:59:24;;;;;;;5.57;1.80;;;;;;;15.96;100.00;101303.25;5050101;28;20074;-65
2022/10/26 10:01:49;;;;;;;3.45;1.65;;;;;;;15.97;100.00;101308.50;5050434;28;20497;-65
2022/10/26 10:04:24;;;;;;;6.63;2.05;;;;;;;15.97;100.00;101308.50;5047951;28;20021;-65
2022/10/26 10:07:02;;;;;;;3.58;2.05;;;;;;;16.00;100.00;101317.28;5048069;28;20487;-65
2022/10/26 10:09:27;;;;;;;4.40;2.13;;;;;;;16.03;100.00;101327.81;5046725;28;20074;-65
2022/10/26 10:11:58;;;;;;;3.67;1.58;;;;;;;16.07;100.00;101324.38;5050412;28;20104;-65
2022/10/26 10:14:38;;;;;;;4.72;1.55;;;;;;;16.09;100.00;101322.66;5049576;28;20017;-66
2022/10/26 10:17:09;;;;;;;5.70;2.13;;;;;;;16.13;100.00;101332.34;5047265;28;20381;-65
2022/10/26 10:19:37;;;;;;;4.10;1.75;;;;;;;16.15;100.00;101340.19;5047220;28;20032;-65
2022/10/26 10:22:17;;;;;;;5.30;2.80;;;;;;;16.16;100.00;101341.94;5049604;28;20453;-65
2022/10/26 10:24:56;;;;;;;6.70;2.47;;;;;;;16.20;100.00;101347.28;5050785;28;20052;-65
2022/10/26 10:27:22;;;;;;;4.88;2.28;;;;;;;16.27;100.00;101363.03;5055145;28;20068;-65
2022/10/26 10:29:50;;;;;;;5.10;1.75;;;;;;;16.28;100.00;101363.06;5061753;28;20560;-65
2022/10/26 10:32:30;;;;;;;3.92;1.75;;;;;;;16.31;100.00;101370.97;5062069;28;20131;-65
2022/10/26 10:34:57;;;;;;;3.87;2.00;;;;;;;16.33;100.00;101364.03;5066506;28;20016;-65
2022/10/26 10:37:28;;;;;;;6.90;2.10;;;;;;;16.40;100.00;101364.13;5066596;28;20380;-65
2022/10/26 10:40:02;;;;;;;7.72;2.38;;;;;;;16.44;100.00;101372.03;5066702;28;20090;-65
2022/10/26 10:42:38;;;;;;;4.53;2.05;;;;;;;16.51;100.00;101383.50;5066886;28;20253;-66
2022/10/26 10:45:05;;;;;;;5.10;2.50;;;;;;;16.56;100.00;101387.06;5064685;28;20047;-65
2022/10/26 10:47:33;;;;;;;5.90;2.00;;;;;;;16.61;100.00;101388.84;5058396;28;20423;-65
2022/10/26 10:50:03;;;;;;;6.07;2.03;;;;;;;16.65;100.00;101388.94;5059180;28;20040;-65
2022/10/26 10:52:31;;;;;;;5.18;2.53;;;;;;;16.66;100.00;101388.06;5066100;28;20118;-65
2022/10/26 10:55:20;;;;;;;6.10;2.60;;;;;;;16.69;100.00;101393.34;5057930;28;20137;-65
2022/10/26 10:58:18;;;;;;;4.85;1.75;;;;;;;16.75;100.00;101395.19;5044983;28;20199;-65
2022/10/26 11:00:47;;;;;;;2.53;1.88;;;;;;;16.83;100.00;101391.81;5047198;28;20132;-65
2022/10/26 11:03:23;;;;;;;6.00;2.05;;;;;;;16.90;100.00;101398.88;5048421;28;20025;-65
2022/10/26 11:06:00;;;;;;;3.13;1.80;;;;;;;17.01;100.00;101407.78;5053224;28;20044;-65
2022/10/26 11:08:38;;;;;;;4.10;1.60;;;;;;;17.12;100.00;101407.09;5051119;28;20446;-65
2022/10/26 11:11:09;;;;;;;3.35;2.03;;;;;;;17.21;100.00;101406.34;5054888;28;20381;-66
2022/10/26 11:13:53;;;;;;;2.75;1.65;;;;;;;17.26;100.00;101416.00;5049307;28;20025;-65
2022/10/26 11:16:31;;;;;;;5.38;1.75;;;;;;;17.33;100.00;101416.06;5054012;28;20082;-65
2022/10/26 11:19:29;;;;;;;3.08;1.60;;;;;;;17.43;100.00;101420.56;5054245;28;20019;-65
2022/10/26 11:21:55;;;;;;;2.75;1.63;;;;;;;17.51;100.00;101421.56;5053165;28;20025;-66
2022/10/26 11:24:30;;;;;;;5.30;2.03;;;;;;;17.59;100.00;101423.41;5054216;28;20028;-66
2022/10/26 11:27:14;;;;;;;1.92;1.20;;;;;;;17.66;100.00;101429.59;5058889;28;20024;-65
2022/10/26 11:29:46;;;;;;;3.03;1.60;;;;;;;17.65;100.00;101433.94;5068633;28;20575;-65
2022/10/26 11:32:21;;;;;;;5.40;1.38;;;;;;;17.58;100.00;101432.09;5060122;28;20108;-65